createdAt,value
2019-05-06T00:00:29.549Z,58.85
2019-05-06T00:02:59.543Z,58.91
2019-05-06T00:05:29.527Z,58.92
2019-05-06T00:07:59.371Z,58.80
2019-05-06T00:10:30.963Z,58.77
2019-05-06T00:13:01.716Z,58.68
2019-05-06T00:15:34.289Z,58.88
2019-05-06T00:18:05.185Z,58.84
2019-05-06T00:20:35.167Z,58.82
2019-05-06T00:23:20.026Z,58.72
2019-05-06T00:26:04.047Z,58.65
2019-05-06T00:28:44.680Z,58.77
2019-05-06T00:31:17.111Z,58.96
2019-05-06T00:33:47.187Z,58.87
2019-05-06T00:36:17.166Z,58.85
2019-05-06T00:38:50.697Z,58.90
2019-05-06T00:41:25.197Z,59.06
2019-05-06T00:43:54.965Z,59.01
2019-05-06T00:46:24.819Z,59.05
2019-05-06T00:48:54.632Z,59.01
2019-05-06T00:51:25.002Z,59.21
2019-05-06T00:54:00.135Z,59.31
2019-05-06T00:56:30.086Z,59.38
2019-05-06T00:59:00.084Z,59.47
2019-05-06T01:01:30.224Z,59.46
2019-05-06T01:04:00.149Z,59.64
2019-05-06T01:06:30.296Z,59.78
2019-05-06T01:09:00.396Z,59.66
2019-05-06T01:11:31.798Z,59.70
2019-05-06T01:14:06.833Z,59.68
2019-05-06T01:16:36.852Z,59.77
2019-05-06T01:19:07.057Z,59.74
2019-05-06T01:21:37.262Z,59.59
2019-05-06T01:24:07.725Z,59.70
2019-05-06T01:26:37.906Z,59.73
2019-05-06T01:29:07.879Z,59.71
2019-05-06T01:31:42.830Z,59.77
2019-05-06T01:34:09.501Z,59.62
2019-05-06T01:36:39.853Z,59.91
2019-05-06T01:39:35.469Z,59.89
2019-05-06T01:42:20.232Z,60.00
2019-05-06T01:44:50.030Z,60.09
2019-05-06T01:47:19.854Z,60.27
2019-05-06T01:49:49.628Z,60.27
2019-05-06T01:52:19.579Z,60.31
2019-05-06T01:54:49.475Z,60.58
2019-05-06T01:57:19.331Z,60.58
2019-05-06T01:59:49.939Z,60.46
2019-05-06T02:02:20.228Z,60.53
2019-05-06T02:04:50.109Z,60.46
2019-05-06T02:07:20.109Z,60.46
2019-05-06T02:09:50.997Z,60.28
2019-05-06T02:12:20.770Z,60.01
2019-05-06T02:14:50.577Z,59.91
2019-05-06T02:17:20.679Z,59.94
2019-05-06T02:19:50.728Z,60.02
2019-05-06T02:22:26.400Z,60.14
2019-05-06T02:25:15.347Z,60.03
2019-05-06T02:27:45.588Z,60.13
2019-05-06T02:30:40.935Z,60.34
2019-05-06T02:33:16.956Z,60.19
2019-05-06T02:36:00.580Z,60.33
2019-05-06T02:38:41.201Z,60.33
2019-05-06T02:41:04.587Z,60.23
2019-05-06T02:43:34.863Z,60.33
2019-05-06T02:46:04.985Z,60.33
2019-05-06T02:48:54.476Z,59.80
2019-05-06T02:51:26.710Z,59.80
2019-05-06T02:53:56.877Z,59.93
2019-05-06T02:56:26.745Z,59.74
2019-05-06T02:58:56.634Z,59.99
2019-05-06T03:01:26.598Z,59.99
2019-05-06T03:03:56.565Z,60.04
2019-05-06T03:06:26.937Z,60.02
2019-05-06T03:08:58.039Z,59.97
2019-05-06T03:11:28.226Z,60.24
2019-05-06T03:13:58.034Z,60.24
2019-05-06T03:16:27.826Z,59.75
2019-05-06T03:18:58.168Z,59.75
2019-05-06T03:22:03.472Z,59.66
2019-05-06T03:24:43.382Z,59.60
2019-05-06T03:27:14.338Z,59.71
2019-05-06T03:29:44.699Z,59.98
2019-05-06T03:32:16.498Z,59.96
2019-05-06T03:35:09.020Z,59.96
2019-05-06T03:37:18.381Z,60.32
2019-05-06T03:39:52.663Z,60.48
2019-05-06T03:42:22.959Z,60.23
2019-05-06T03:44:56.893Z,60.19
2019-05-06T03:47:34.826Z,60.16
2019-05-06T03:50:07.756Z,60.20
2019-05-06T03:52:37.525Z,60.03
2019-05-06T03:55:07.546Z,60.27
2019-05-06T03:57:38.585Z,60.28
2019-05-06T04:00:13.010Z,60.01
2019-05-06T04:02:43.476Z,60.01
2019-05-06T04:05:14.968Z,60.04
2019-05-06T04:07:46.625Z,59.75
2019-05-06T04:10:16.752Z,59.71
2019-05-06T04:12:48.533Z,59.71
2019-05-06T04:15:19.022Z,59.20
2019-05-06T04:17:56.122Z,59.45
2019-05-06T04:20:47.906Z,59.58
2019-05-06T04:23:43.497Z,59.58
2019-05-06T04:26:24.127Z,59.42
2019-05-06T04:28:54.849Z,59.37
2019-05-06T04:31:25.417Z,59.21
2019-05-06T04:34:08.815Z,59.15
2019-05-06T04:36:26.976Z,59.14
2019-05-06T04:38:56.966Z,58.92
2019-05-06T04:41:27.075Z,59.14
2019-05-06T04:43:57.388Z,59.15
2019-05-06T04:46:27.637Z,58.98
2019-05-06T04:48:58.621Z,58.92
2019-05-06T04:51:28.898Z,58.93
2019-05-06T04:53:59.025Z,58.85
2019-05-06T04:56:29.069Z,58.85
2019-05-06T04:58:58.944Z,59.08
2019-05-06T05:01:29.606Z,59.01
2019-05-06T05:03:59.795Z,58.72
2019-05-06T05:06:32.656Z,58.60
2019-05-06T05:09:02.888Z,58.78
2019-05-06T05:11:53.249Z,58.66
2019-05-06T05:14:42.465Z,58.60
2019-05-06T05:17:30.401Z,58.63
2019-05-06T05:20:02.115Z,58.65
2019-05-06T05:22:33.597Z,58.65
2019-05-06T05:25:05.009Z,58.40
2019-05-06T05:27:35.558Z,58.80
2019-05-06T05:30:05.885Z,58.84
2019-05-06T05:32:37.574Z,58.42
2019-05-06T05:35:07.919Z,58.26
2019-05-06T05:37:38.123Z,58.16
2019-05-06T05:40:08.708Z,58.15
2019-05-06T05:43:02.917Z,58.07
2019-05-06T05:45:33.088Z,58.08
2019-05-06T05:48:06.762Z,58.09
2019-05-06T05:50:39.314Z,58.24
2019-05-06T05:53:09.129Z,58.19
2019-05-06T05:55:39.018Z,57.88
2019-05-06T05:58:09.301Z,57.80
2019-05-06T06:00:39.600Z,57.89
2019-05-06T06:03:09.491Z,57.86
2019-05-06T06:05:39.267Z,58.12
2019-05-06T06:08:09.246Z,58.00
2019-05-06T06:10:53.969Z,57.51
2019-05-06T06:13:24.415Z,57.29
2019-05-06T06:16:12.991Z,57.33
2019-05-06T06:18:52.447Z,57.44
2019-05-06T06:21:32.052Z,57.32
2019-05-06T06:24:07.261Z,57.30
2019-05-06T06:26:37.456Z,57.02
2019-05-06T06:29:07.629Z,56.69
2019-05-06T06:31:46.518Z,56.43
2019-05-06T06:34:22.348Z,56.21
2019-05-06T06:37:10.193Z,56.11
2019-05-06T06:39:42.745Z,56.20
2019-05-06T06:42:13.682Z,56.52
2019-05-06T06:44:43.926Z,56.37
2019-05-06T06:47:14.123Z,56.20
2019-05-06T06:49:44.807Z,56.29
2019-05-06T06:52:15.176Z,56.65
2019-05-06T06:54:45.428Z,56.87
2019-05-06T06:57:33.926Z,56.08
2019-05-06T07:00:28.444Z,55.99
2019-05-06T07:03:02.863Z,56.04
2019-05-06T07:05:42.374Z,55.66
2019-05-06T07:08:13.223Z,55.53
2019-05-06T07:10:43.408Z,55.69
2019-05-06T07:13:15.345Z,55.70
2019-05-06T07:15:45.638Z,55.50
2019-05-06T07:18:15.603Z,55.43
2019-05-06T07:21:06.979Z,55.27
2019-05-06T07:23:37.569Z,55.21
2019-05-06T07:26:08.335Z,55.10
2019-05-06T07:28:38.300Z,55.29
2019-05-06T07:31:20.730Z,55.29
2019-05-06T07:33:42.885Z,55.27
2019-05-06T07:36:13.064Z,55.16
2019-05-06T07:38:52.401Z,55.44
2019-05-06T07:41:45.785Z,55.31
2019-05-06T07:44:29.905Z,54.66
2019-05-06T07:47:19.126Z,54.17
2019-05-06T07:49:49.141Z,53.47
2019-05-06T07:52:19.214Z,53.01
2019-05-06T07:54:49.041Z,52.51
2019-05-06T07:57:19.176Z,52.20
2019-05-06T07:59:49.071Z,52.39
2019-05-06T08:02:19.317Z,52.62
2019-05-06T08:04:49.857Z,52.73
2019-05-06T08:07:22.129Z,53.30
2019-05-06T08:09:52.909Z,53.62
2019-05-06T08:12:23.368Z,53.71
2019-05-06T08:14:53.273Z,53.46
2019-05-06T08:17:28.396Z,53.20
2019-05-06T08:19:58.274Z,53.08
2019-05-06T08:23:02.752Z,53.05
2019-05-06T08:25:44.601Z,52.87
2019-05-06T08:28:14.436Z,52.87
2019-05-06T08:30:44.638Z,53.23
2019-05-06T08:33:14.580Z,53.78
2019-05-06T08:35:44.396Z,54.21
2019-05-06T08:38:14.416Z,54.05
2019-05-06T08:40:44.395Z,53.68
2019-05-06T08:43:14.304Z,53.34
2019-05-06T08:45:44.996Z,53.24
2019-05-06T08:48:14.783Z,52.77
2019-05-06T08:51:02.721Z,52.42
2019-05-06T08:54:03.047Z,52.48
2019-05-06T08:56:33.162Z,52.53
2019-05-06T08:59:03.258Z,52.74
2019-05-06T09:01:50.319Z,53.12
2019-05-06T09:04:22.630Z,53.23
2019-05-06T09:06:53.389Z,53.51
2019-05-06T09:09:23.589Z,53.67
2019-05-06T09:11:53.790Z,53.24
2019-05-06T09:14:23.976Z,52.62
2019-05-06T09:16:54.294Z,51.92
2019-05-06T09:19:24.492Z,52.00
2019-05-06T09:21:54.396Z,52.43
2019-05-06T09:24:24.317Z,52.00
2019-05-06T09:27:06.943Z,51.90
2019-05-06T09:29:44.456Z,51.88
2019-05-06T09:32:22.506Z,51.76
2019-05-06T09:34:54.167Z,51.05
2019-05-06T09:37:24.381Z,50.62
2019-05-06T09:39:54.346Z,50.90
2019-05-06T09:42:24.542Z,51.36
2019-05-06T09:44:54.676Z,52.02
2019-05-06T09:47:44.934Z,52.47
2019-05-06T09:50:17.722Z,52.60
2019-05-06T09:52:47.892Z,52.66
2019-05-06T09:55:23.311Z,52.53
2019-05-06T09:58:03.475Z,52.08
2019-05-06T10:00:37.902Z,52.25
2019-05-06T10:03:08.015Z,52.26
2019-05-06T10:05:38.085Z,51.93
2019-05-06T10:08:08.161Z,51.55
2019-05-06T10:10:38.128Z,51.09
2019-05-06T10:13:08.101Z,50.62
2019-05-06T10:15:38.046Z,50.09
2019-05-06T10:18:08.170Z,49.98
2019-05-06T10:20:44.560Z,49.96
2019-05-06T10:23:15.289Z,50.27
2019-05-06T10:25:45.315Z,50.32
2019-05-06T10:28:54.091Z,50.56
2019-05-06T10:31:24.008Z,50.71
2019-05-06T10:34:13.939Z,50.32
2019-05-06T10:36:53.304Z,50.33
2019-05-06T10:39:26.150Z,50.20
2019-05-06T10:42:13.856Z,50.03
2019-05-06T10:45:09.057Z,49.61
2019-05-06T10:47:38.950Z,49.00
2019-05-06T10:50:12.434Z,48.81
2019-05-06T10:53:02.630Z,49.47
2019-05-06T10:55:32.607Z,49.46
2019-05-06T10:58:02.872Z,48.75
2019-05-06T11:00:33.351Z,49.06
2019-05-06T11:03:14.447Z,49.77
2019-05-06T11:05:43.459Z,50.35
2019-05-06T11:08:13.615Z,50.13
2019-05-06T11:10:45.329Z,50.38
2019-05-06T11:13:15.516Z,50.69
2019-05-06T11:15:45.817Z,50.61
2019-05-06T11:18:15.765Z,50.90
2019-05-06T11:20:45.702Z,50.75
2019-05-06T11:23:15.593Z,50.53
2019-05-06T11:25:45.451Z,50.72
2019-05-06T11:28:35.347Z,50.90
2019-05-06T11:31:24.219Z,50.90
2019-05-06T11:34:07.253Z,50.96
2019-05-06T11:36:49.468Z,50.61
2019-05-06T11:39:19.381Z,50.44
2019-05-06T11:42:06.395Z,50.13
2019-05-06T11:44:23.574Z,49.79
2019-05-06T11:46:52.776Z,49.42
2019-05-06T11:49:23.439Z,49.41
2019-05-06T11:51:53.319Z,49.61
2019-05-06T11:54:24.457Z,49.56
2019-05-06T11:56:58.405Z,49.30
2019-05-06T11:59:28.423Z,49.45
2019-05-06T12:02:03.334Z,49.85
2019-05-06T12:04:33.404Z,50.23
2019-05-06T12:07:11.417Z,50.33
2019-05-06T12:09:36.405Z,49.93
2019-05-06T12:12:06.629Z,48.89
2019-05-06T12:14:36.579Z,48.61
2019-05-06T12:17:06.632Z,48.47
2019-05-06T12:19:36.741Z,48.80
2019-05-06T12:22:06.533Z,49.19
2019-05-06T12:24:36.445Z,49.46
2019-05-06T12:27:07.186Z,48.94
2019-05-06T12:29:38.420Z,48.45
2019-05-06T12:32:34.547Z,48.12
2019-05-06T12:35:05.292Z,48.77
2019-05-06T12:37:35.858Z,48.98
2019-05-06T12:40:06.062Z,49.37
2019-05-06T12:42:43.407Z,49.55
2019-05-06T12:45:38.832Z,49.28
2019-05-06T12:48:26.753Z,49.02
2019-05-06T12:50:59.916Z,48.86
2019-05-06T12:53:32.606Z,48.51
2019-05-06T12:56:03.063Z,47.93
2019-05-06T12:58:33.421Z,47.13
2019-05-06T13:01:04.274Z,46.99
2019-05-06T13:03:35.024Z,46.95
2019-05-06T13:06:07.749Z,46.61
2019-05-06T13:08:53.903Z,46.59
2019-05-06T13:11:09.159Z,47.20
2019-05-06T13:13:55.576Z,47.37
2019-05-06T13:16:12.565Z,48.02
2019-05-06T13:18:47.742Z,47.92
2019-05-06T13:21:14.802Z,47.86
2019-05-06T13:23:51.376Z,47.53
2019-05-06T13:26:22.250Z,48.09
2019-05-06T13:28:56.965Z,48.30
2019-05-06T13:31:27.073Z,48.38
2019-05-06T13:34:10.286Z,48.30
2019-05-06T13:36:42.609Z,48.68
2019-05-06T13:39:15.068Z,49.39
2019-05-06T13:41:44.069Z,49.71
2019-05-06T13:44:15.833Z,49.71
2019-05-06T13:46:48.198Z,50.42
2019-05-06T13:49:46.207Z,50.71
2019-05-06T13:52:19.810Z,50.48
2019-05-06T13:54:52.806Z,52.33
2019-05-06T13:57:22.083Z,52.33
2019-05-06T13:59:53.250Z,53.01
2019-05-06T14:02:49.422Z,53.31
2019-05-06T14:05:19.492Z,53.63
2019-05-06T14:07:52.526Z,54.48
2019-05-06T14:10:22.371Z,55.29
2019-05-06T14:12:53.393Z,55.79
2019-05-06T14:15:23.473Z,55.90
2019-05-06T14:17:53.543Z,55.55
2019-05-06T14:20:24.068Z,55.31
2019-05-06T14:22:54.064Z,54.57
2019-05-06T14:25:46.333Z,54.13
2019-05-06T14:28:32.425Z,54.23
2019-05-06T14:31:06.341Z,54.49
2019-05-06T14:33:36.319Z,54.55
2019-05-06T14:36:06.280Z,54.44
2019-05-06T14:38:36.104Z,54.16
2019-05-06T14:41:13.284Z,54.30
2019-05-06T14:43:43.337Z,54.04
2019-05-06T14:46:13.509Z,53.85
2019-05-06T14:48:43.885Z,53.73
2019-05-06T14:51:14.092Z,53.50
2019-05-06T14:53:44.197Z,53.41
2019-05-06T14:56:23.106Z,53.29
2019-05-06T14:59:07.435Z,53.53
2019-05-06T15:01:38.988Z,53.55
2019-05-06T15:04:09.449Z,53.52
2019-05-06T15:06:39.530Z,53.53
2019-05-06T15:09:13.131Z,53.32
2019-05-06T15:11:43.400Z,53.08
2019-05-06T15:14:13.896Z,52.67
2019-05-06T15:16:43.886Z,52.30
2019-05-06T15:19:14.088Z,52.39
2019-05-06T15:21:43.995Z,52.44
2019-05-06T15:24:14.663Z,52.61
2019-05-06T15:26:44.744Z,52.68
2019-05-06T15:29:14.602Z,52.82
2019-05-06T15:32:06.360Z,53.04
2019-05-06T15:34:42.592Z,53.13
2019-05-06T15:37:27.467Z,53.25
2019-05-06T15:39:56.560Z,53.17
2019-05-06T15:42:27.979Z,53.32
2019-05-06T15:44:57.759Z,53.19
2019-05-06T15:47:27.997Z,53.37
2019-05-06T15:49:58.536Z,53.56
2019-05-06T15:52:28.509Z,53.80
2019-05-06T15:54:58.888Z,53.84
2019-05-06T15:57:28.845Z,53.86
2019-05-06T15:59:58.718Z,53.98
2019-05-06T16:02:28.940Z,54.18
2019-05-06T16:04:58.817Z,54.06
2019-05-06T16:07:31.811Z,53.75
2019-05-06T16:10:02.461Z,53.52
2019-05-06T16:12:32.522Z,53.64
2019-05-06T16:15:02.778Z,53.54
2019-05-06T16:17:34.165Z,53.41
2019-05-06T16:20:04.581Z,53.51
2019-05-06T16:22:34.815Z,53.58
2019-05-06T16:25:10.639Z,53.75
2019-05-06T16:27:44.141Z,53.70
2019-05-06T16:30:17.327Z,53.73
2019-05-06T16:32:47.192Z,53.89
2019-05-06T16:35:17.590Z,54.03
2019-05-06T16:37:47.428Z,53.99
2019-05-06T16:40:17.929Z,53.96
2019-05-06T16:42:47.743Z,53.60
2019-05-06T16:45:18.912Z,53.68
2019-05-06T16:47:48.960Z,53.96
2019-05-06T16:50:19.555Z,54.24
2019-05-06T16:52:49.483Z,54.16
2019-05-06T16:55:24.437Z,54.27
2019-05-06T16:58:03.579Z,54.47
2019-05-06T17:00:35.174Z,54.70
2019-05-06T17:03:16.862Z,54.69
2019-05-06T17:06:06.727Z,54.73
2019-05-06T17:08:39.293Z,55.00
2019-05-06T17:11:26.132Z,55.33
2019-05-06T17:13:42.579Z,55.41
2019-05-06T17:16:14.015Z,55.48
2019-05-06T17:18:44.177Z,55.54
2019-05-06T17:21:14.225Z,55.65
2019-05-06T17:23:44.062Z,55.60
2019-05-06T17:26:15.400Z,55.39
2019-05-06T17:28:56.788Z,55.27
2019-05-06T17:31:34.032Z,55.21
2019-05-06T17:34:04.895Z,55.29
2019-05-06T17:36:36.180Z,55.35
2019-05-06T17:39:09.369Z,55.35
2019-05-06T17:41:47.626Z,55.38
2019-05-06T17:44:32.350Z,55.62
2019-05-06T17:47:12.436Z,55.87
2019-05-06T17:49:43.023Z,56.00
2019-05-06T17:52:22.343Z,55.92
2019-05-06T17:54:52.898Z,56.02
2019-05-06T17:57:22.964Z,55.95
2019-05-06T17:59:52.987Z,55.93
2019-05-06T18:02:24.515Z,56.14
2019-05-06T18:04:54.345Z,56.54
2019-05-06T18:07:24.272Z,56.94
2019-05-06T18:09:54.364Z,57.48
2019-05-06T18:12:24.244Z,57.82
2019-05-06T18:14:54.832Z,58.27
2019-05-06T18:17:24.688Z,58.92
2019-05-06T18:19:54.540Z,59.60
2019-05-06T18:22:24.453Z,59.88
2019-05-06T18:24:54.578Z,60.38
2019-05-06T18:27:25.688Z,61.12
2019-05-06T18:30:10.150Z,61.74
2019-05-06T18:32:27.310Z,61.91
2019-05-06T18:34:58.491Z,61.84
2019-05-06T18:37:28.775Z,61.45
2019-05-06T18:39:58.994Z,61.26
2019-05-06T18:42:29.091Z,60.92
2019-05-06T18:44:58.965Z,60.59
2019-05-06T18:47:28.945Z,60.21
2019-05-06T18:49:58.871Z,60.09
2019-05-06T18:52:28.751Z,59.79
2019-05-06T18:54:58.688Z,59.36
2019-05-06T18:57:28.641Z,59.05
2019-05-06T18:59:58.492Z,58.75
2019-05-06T19:02:28.415Z,58.73
2019-05-06T19:05:13.064Z,58.90
2019-05-06T19:07:44.313Z,58.86
2019-05-06T19:10:23.803Z,58.88
2019-05-06T19:12:53.826Z,58.78
2019-05-06T19:15:23.760Z,58.74
2019-05-06T19:17:58.377Z,58.76
2019-05-06T19:20:27.757Z,58.73
2019-05-06T19:23:02.373Z,61.48
2019-05-06T19:25:34.667Z,59.28
2019-05-06T19:28:04.903Z,59.41
2019-05-06T19:30:35.361Z,59.45
2019-05-06T19:33:06.973Z,59.26
2019-05-06T19:35:37.363Z,59.12
2019-05-06T19:38:07.361Z,59.15
2019-05-06T19:40:37.225Z,59.29
2019-05-06T19:43:07.305Z,59.33
2019-05-06T19:45:37.137Z,59.36
2019-05-06T19:48:07.128Z,59.41
2019-05-06T19:50:37.292Z,59.42
2019-05-06T19:53:07.290Z,59.37
2019-05-06T19:55:37.203Z,59.38
2019-05-06T19:58:07.071Z,59.47
2019-05-06T20:00:36.979Z,59.62
2019-05-06T20:03:06.963Z,59.71
2019-05-06T20:05:50.228Z,59.76
2019-05-06T20:08:34.207Z,59.89
2019-05-06T20:11:16.681Z,59.96
2019-05-06T20:13:46.657Z,59.96
2019-05-06T20:16:16.696Z,59.90
2019-05-06T20:18:46.656Z,59.99
2019-05-06T20:21:16.466Z,59.96
2019-05-06T20:23:46.857Z,59.97
2019-05-06T20:26:18.081Z,60.25
2019-05-06T20:28:48.336Z,60.37
2019-05-06T20:31:18.533Z,60.19
2019-05-06T20:33:48.480Z,60.11
2019-05-06T20:36:18.293Z,60.04
2019-05-06T20:38:48.173Z,60.00
2019-05-06T20:41:18.169Z,59.91
2019-05-06T20:43:48.285Z,59.90
2019-05-06T20:46:18.516Z,59.80
2019-05-06T20:48:48.705Z,59.95
2019-05-06T20:51:18.747Z,60.02
2019-05-06T20:53:48.534Z,60.08
2019-05-06T20:56:18.526Z,59.93
2019-05-06T20:58:48.421Z,59.96
2019-05-06T21:01:18.357Z,60.04
2019-05-06T21:03:48.251Z,59.89
2019-05-06T21:06:18.446Z,59.85
2019-05-06T21:08:48.204Z,60.14
2019-05-06T21:11:27.640Z,60.19
2019-05-06T21:13:49.834Z,60.29
2019-05-06T21:16:19.752Z,60.54
2019-05-06T21:18:51.996Z,60.60
2019-05-06T21:21:21.637Z,60.78
2019-05-06T21:23:52.481Z,60.67
2019-05-06T21:26:22.432Z,60.45
2019-05-06T21:28:52.362Z,60.51
2019-05-06T21:31:23.495Z,60.61
2019-05-06T21:33:53.361Z,60.59
2019-05-06T21:36:23.379Z,60.58
2019-05-06T21:38:53.663Z,60.66
2019-05-06T21:41:23.906Z,60.91
2019-05-06T21:43:53.866Z,61.07
2019-05-06T21:46:23.776Z,61.10
2019-05-06T21:48:53.569Z,61.18
2019-05-06T21:51:24.302Z,61.30
2019-05-06T21:53:54.194Z,61.31
2019-05-06T21:56:24.134Z,61.29
2019-05-06T21:58:54.477Z,61.20
2019-05-06T22:01:25.165Z,61.17
2019-05-06T22:03:55.549Z,61.22
2019-05-06T22:06:25.540Z,61.42
2019-05-06T22:08:55.629Z,61.65
2019-05-06T22:11:26.977Z,61.86
2019-05-06T22:14:01.425Z,61.79
2019-05-06T22:16:29.019Z,62.05
2019-05-06T22:18:59.115Z,62.41
2019-05-06T22:21:29.068Z,62.47
2019-05-06T22:24:04.228Z,62.45
2019-05-06T22:26:32.994Z,62.46
2019-05-06T22:29:02.965Z,62.40
2019-05-06T22:31:33.373Z,62.40
2019-05-06T22:34:03.241Z,62.58
2019-05-06T22:36:33.567Z,62.48
2019-05-06T22:39:04.627Z,62.40
2019-05-06T22:41:35.643Z,62.26
2019-05-06T22:44:13.701Z,62.23
2019-05-06T22:46:37.413Z,62.27
2019-05-06T22:49:07.427Z,62.17
2019-05-06T22:51:37.350Z,61.99
2019-05-06T22:54:07.345Z,62.05
2019-05-06T22:56:37.339Z,62.06
2019-05-06T22:59:07.197Z,62.11
2019-05-06T23:02:02.432Z,62.31
2019-05-06T23:04:33.394Z,62.29
2019-05-06T23:07:04.847Z,62.30
2019-05-06T23:09:35.239Z,62.36
2019-05-06T23:12:05.235Z,62.66
2019-05-06T23:14:37.258Z,62.91
2019-05-06T23:17:06.957Z,63.07
2019-05-06T23:19:36.808Z,63.27
2019-05-06T23:22:07.361Z,63.10
2019-05-06T23:24:37.135Z,63.17
2019-05-06T23:27:07.304Z,63.16
2019-05-06T23:29:37.103Z,62.99
2019-05-06T23:32:07.624Z,62.90
2019-05-06T23:34:37.484Z,62.70
2019-05-06T23:37:23.884Z,62.57
2019-05-06T23:40:33.205Z,62.39
2019-05-06T23:43:38.827Z,62.32
2019-05-06T23:46:44.765Z,62.40
2019-05-06T23:49:52.785Z,62.72
2019-05-06T23:52:59.062Z,62.90
2019-05-06T23:56:05.158Z,62.90
2019-05-06T23:58:34.960Z,62.77
